• Join FlightAware (Why Join?)
  • Login
  • US Flag 
04:36PM EDT


 

Airport Tracker/Info


-or-


 

Live Flight TrackerFlight Track Log ✈ ASH2834 ✈ 21-Apr-2013 ✈ KPHX - KTUS

Flight Track Log - Related Links

Times and Time Zones

All times are in EDT time to prevent confusion due to time zone crossing. See the ASH2834 flight status page for this flight to view local times or setup timezone preferences in your user account.

Time Position Orientation Groundspeed Altitude Reporting Facility
EDT Latitude Longitude Course Direction KTS MPH feet Rate Location/Type
01:01AM 33.4294 -112.0378 144° Southeast 172 198 2,100  Level Albuquerque Center
01:02AM 33.4128 -112.0922 250° West 192 221 3,900 1,980 Climbing Albuquerque Center
01:03AM 33.3833 -112.1653 244° Southwest 253 291 6,200 2,520 Climbing Albuquerque Center
01:04AM 33.3119 -112.1422 165° South 279 321 9,100 2,460 Climbing Albuquerque Center
01:05AM 32.9164 -111.9110 164° South  Level FlightAware Approximate
01:05AM 33.2372 -112.1011 155° Southeast 295 339 11,300  Level Albuquerque Center
01:06AM 32.8047 -111.8326 144° Southeast  Level FlightAware Approximate
01:06AM 33.1469 -112.0517 155° Southeast 352 405 12,700  Level Albuquerque Center
01:07AM 33.0481 -111.9975 155° Southeast 387 445 14,600 1,920 Climbing Albuquerque Center
01:08AM 32.9442 -111.9397 155° Southeast 409 471 16,600 1,140 Climbing Albuquerque Center
01:09AM 32.8392 -111.8694 151° Southeast 433 498 17,000 240 Climbing Albuquerque Center
01:10AM 32.7453 -111.7931 146° Southeast 445 512 17,100 -120 Climbing Albuquerque Center
01:10AM 32.7386 -111.7833 129° Southeast 445 512 16,900 -2,340 Descending Albuquerque Center
01:11AM 32.6742 -111.7336 147° Southeast 441 507 15,500 -2,820 Descending Albuquerque Center
01:11AM 32.6228 -111.6867 142° Southeast 426 490 14,100 -2,400 Descending Albuquerque Center
01:12AM 32.5894 -111.6472 135° Southeast 416 479 13,100 -2,220 Descending Albuquerque Center
01:12AM 32.5547 -111.5867 124° Southeast 403 464 11,900 -1,980 Descending Albuquerque Center
01:13AM 32.5214 -111.5364 128° Southeast 388 447 10,900 -1,800 Descending Albuquerque Center
01:13AM 32.4933 -111.4850 123° Southeast 387 445 10,100 -900 Descending Albuquerque Center
01:14AM 32.4625 -111.4408 130° Southeast 353 406 10,000 -540 Descending Albuquerque Center
01:14AM 32.4394 -111.3994 123° Southeast 340 391 9,600 -1,200 Descending Albuquerque Center
01:15AM 32.4164 -111.3672 130° Southeast 303 349 8,900 -1,680 Descending Albuquerque Center
01:15AM 32.3925 -111.3239 123° Southeast 295 339 7,900 -1,740 Descending Albuquerque Center
01:16AM 32.3697 -111.2914 130° Southeast 291 335 7,200 -900 Descending Albuquerque Center
01:16AM 32.3458 -111.2494 124° Southeast 287 330 7,000 -420 Descending Albuquerque Center
01:17AM 32.3194 -111.2092 128° Southeast 287 330 6,800 -840 Descending Albuquerque Center
01:17AM 32.2975 -111.1739 126° Southeast 286 329 6,200 -840 Descending Albuquerque Center
01:18AM 32.2731 -111.1358 127° Southeast 284 327 6,000 -240 Descending Albuquerque Center
01:18AM 32.2575 -111.1017 118° Southeast 275 316 6,000 -420 Level Albuquerque Center
01:19AM 32.2336 -111.0758 138° Southeast 237 273 5,600 -1,140 Descending Albuquerque Center
01:19AM 32.2153 -111.0453 125° Southeast 251 289 4,900 -1,320 Descending Albuquerque Center
01:20AM 32.1875 -111.0253 149° Southeast 227 261 4,300 -1,020 Descending Albuquerque Center
01:20AM 32.1722 -110.9986 124° Southeast 230 265 3,900 -840 Descending Albuquerque Center
01:21AM 32.1536 -110.9842 147° Southeast 171 197 3,500 -960 Descending Albuquerque Center